WetterOnline ( https://www.wetteronline.de )

Wetter aktuell Malsch

Aktuelles Wetter: Rheinstetten (116m)

6-stündlich | Neueste Meldungen
Ortszeit Temperatur Wetter
Do, 01.10. 2:00 9.8° C wolkenlos
Mi, 30.09. 20:00 15.8° C wolkenlos
Mi, 30.09. 14:00 18.8° C leicht bewölkt
Mi, 30.09. 8:00 9.0° C wolkenlos
Mi, 30.09. 2:00 11.9° C leicht bewölkt
Di, 29.09. 20:00 13.8° C bedeckt
Di, 29.09. 14:00 13.3° C wolkig
Di, 29.09. 8:00 12.0° C Sprühregen
Ortszeit Temperatur Wetter
Do, 01.10. 4:30 8.5° C fast wolkenlos
Do, 01.10. 4:20 8.5° C fast wolkenlos
Do, 01.10. 4:10 8.8° C fast wolkenlos
Do, 01.10. 4:00 9.1° C fast wolkenlos
Do, 01.10. 3:50 9.1° C fast wolkenlos
Do, 01.10. 3:40 9.0° C leicht bewölkt
Do, 01.10. 3:30 9.3° C bewölkt
Do, 01.10. 3:00 8.9° C leicht bewölkt
Do, 01.10. 2:30 9.1° C wolkenlos
Do, 01.10. 2:00 9.8° C wolkenlos
Do, 01.10. 1:30 10.2° C leicht bewölkt
Ortszeit Relative Feuchte Sichtweite
Do, 01.10. 2:00 99% 6 km
Mi, 30.09. 20:00 75% 30 km
Mi, 30.09. 14:00 54% 55 km
Mi, 30.09. 8:00 97% 10 km
Mi, 30.09. 2:00 89% 35 km
Di, 29.09. 20:00 80% 45 km
Di, 29.09. 14:00 85% 55 km
Di, 29.09. 8:00 97% 3.2 km
Ortszeit Relative Feuchte Sichtweite
Do, 01.10. 4:30 99% 5.0 km
Do, 01.10. 4:20 99% -
Do, 01.10. 4:10 97% -
Do, 01.10. 4:00 99% 9 km
Do, 01.10. 3:50 99% -
Do, 01.10. 3:40 98% -
Do, 01.10. 3:30 97% 6 km
Do, 01.10. 3:00 97% 9 km
Do, 01.10. 2:30 97% 8 km
Do, 01.10. 2:00 99% 6 km
Do, 01.10. 1:30 96% 7 km
Ortszeit Niederschlagsmenge Niederschlagsart
Do, 01.10. 2:00 0.0 l/m2 in 6 Std. -
Mi, 30.09. 20:00 0.0 l/m2 in 12 Std. -
Mi, 30.09. 14:00 0.0 l/m2 in 6 Std. -
Mi, 30.09. 8:00 0.1 l/m2 in 12 Std. -
Mi, 30.09. 2:00 0.1 l/m2 in 6 Std. Sprühregen
Di, 29.09. 20:00 0.1 l/m2 in 12 Std. -
Di, 29.09. 14:00 0.1 l/m2 in 6 Std. Sprühregen
Di, 29.09. 8:00 0.4 l/m2 in 12 Std. Regen
Ortszeit Niederschlagsmenge Niederschlagsart
Do, 01.10. 4:30 0.0 l/m2 in 1 Std. -
Do, 01.10. 4:20 keine Meldung -
Do, 01.10. 4:10 keine Meldung -
Do, 01.10. 4:00 0.0 l/m2 in 1 Std. -
Do, 01.10. 3:50 keine Meldung -
Do, 01.10. 3:40 keine Meldung -
Do, 01.10. 3:30 0.0 l/m2 in 1 Std. -
Do, 01.10. 3:00 0.0 l/m2 in 1 Std. -
Do, 01.10. 2:30 0.0 l/m2 in 1 Std. -
Do, 01.10. 2:00 0.0 l/m2 in 1 Std. -
Do, 01.10. 1:30 0.0 l/m2 in 1 Std. -
Ortszeit Stärke Spitze Richtung
km/h Bft. km/h Grad Sektor
Do, 01.10. 2:00 4 1 14 200° S
Mi, 30.09. 20:00 13 3 24 40° NO
Mi, 30.09. 14:00 7 2 14 320° NW
Mi, 30.09. 8:00 0 0 14 - -
Mi, 30.09. 2:00 11 2 14 230° SW
Di, 29.09. 20:00 9 2 33 230° SW
Di, 29.09. 14:00 20 4 35 230° SW
Di, 29.09. 8:00 14 3 25 230° SW
Ortszeit Stärke Spitze Richtung
km/h Bft. km/h Grad Sektor
Do, 01.10. 4:30 4 1 4 120° SO
Do, 01.10. 4:20 4 1 - 120° SO
Do, 01.10. 4:10 4 1 - 110° O
Do, 01.10. 4:00 4 1 7 150° SO
Do, 01.10. 3:50 4 1 - 150° SO
Do, 01.10. 3:40 4 1 - 160° S
Do, 01.10. 3:30 4 1 4 170° S
Do, 01.10. 3:00 4 1 7 140° SO
Do, 01.10. 2:30 4 1 7 150° SO
Do, 01.10. 2:00 4 1 7 200° S
Do, 01.10. 1:30 4 1 7 140° SO
Ortszeit Untergrenze Bedeckung Gattung
total tief tief mittel hoch
Do, 01.10. 2:00 - 0/8 0/8 - - -
Mi, 30.09. 20:00 - 0/8 0/8 - - -
Mi, 30.09. 14:00 1140 m 3/8 3/8 - - -
Mi, 30.09. 8:00 - 0/8 0/8 - - -
Mi, 30.09. 2:00 1800 m 2/8 2/8 - - -
Di, 29.09. 20:00 1380 m 8/8 8/8 - - -
Di, 29.09. 14:00 510 m 6/8 6/8 - - -
Di, 29.09. 8:00 120 m 7/8 7/8 - - -
Ortszeit Bedeckungsgrad in Achtel und Wolkenuntergrenze
Do, 01.10. 4:30 1(90m)
Do, 01.10. 4:20 1(90m)
Do, 01.10. 4:10 1(10500m)
Do, 01.10. 4:00 2(10500m)
Do, 01.10. 3:50 2(10500m)
Do, 01.10. 3:40 2(1500m)
Do, 01.10. 3:30 7(1500m)
Do, 01.10. 3:00 2(1500m)
Do, 01.10. 2:30 1(30m)
Do, 01.10. 2:00 keine Wolken
Do, 01.10. 1:30 3(1380m)
Ortszeit Luftdruck NN (hPa) Tendenz (hPa in 3 Std.)
Do, 01.10. 2:00 1011 - 1,3
Mi, 30.09. 20:00 1013 - 0,5
Mi, 30.09. 14:00 1015 - 1,9
Mi, 30.09. 8:00 1018 - 0,3
Mi, 30.09. 2:00 1019 - 0,6
Di, 29.09. 20:00 1019 + 0,4
Di, 29.09. 14:00 1019 + 0,7
Di, 29.09. 8:00 1016 + 1,0
Ortszeit Luftdruck NN (hPa) Tendenz (hPa in 3 Std.)
Do, 01.10. 4:30 1009 - 2,0
Do, 01.10. 4:20 1009 keine Meldung
Do, 01.10. 4:10 1009 keine Meldung
Do, 01.10. 4:00 1009 - 1,9
Do, 01.10. 3:50 1009 keine Meldung
Do, 01.10. 3:40 1009 keine Meldung
Do, 01.10. 3:30 1010 - 1,5
Do, 01.10. 3:00 1010 - 1,4
Do, 01.10. 2:30 1010 - 1,2
Do, 01.10. 2:00 1011 - 1,3
Do, 01.10. 1:30 1011 - 1,3
Ortszeit Schneehöhe (cm)
Do, 01.10. 2:00 -
Mi, 30.09. 20:00 -
Mi, 30.09. 14:00 -
Mi, 30.09. 8:00 -
Mi, 30.09. 2:00 -
Di, 29.09. 20:00 -
Di, 29.09. 14:00 -
Di, 29.09. 8:00 -
Ortszeit Schneehöhe (cm)
Do, 01.10. 4:30 -
Do, 01.10. 4:20 -
Do, 01.10. 4:10 -
Do, 01.10. 4:00 -
Do, 01.10. 3:50 -
Do, 01.10. 3:40 -
Do, 01.10. 3:30 -
Do, 01.10. 3:00 -
Do, 01.10. 2:30 -
Do, 01.10. 2:00 -
Do, 01.10. 1:30 -
Link zu dieser Seite / Seite empfehlen

Das Wetter in ...